Spacecraft Satellite overpass computed based on SGP4 code. Updated every day at 2:25 LT
Spacecraft : Terra    
         GMT                             Satellite      Satellite     Solar          Solar         Scat ang       
  year-mo-da hr:mn:sc    elevation     azimuth    elevation   azimuth    (bk=180)     
  2021-06-13 07:50:29     10.2             84.6          48.7           115.1         133.8
  2021-06-13 09:29:04     73.6            103.2          60.6           149.2         158.7
  2021-06-13 11:06:18     18.4            302.0          62.6           196.9          99.6
  2021-06-13 19:01:59     20.9             59.4          -2.7           312.9        -999.0
  2021-06-13 20:39:20     63.1            258.2         -12.1           333.4        -999.0
Spacecraft : Aqua    
         GMT                             Satellite      Satellite     Solar          Solar         Scat ang       
  year-mo-da hr:mn:sc    elevation     azimuth    elevation   azimuth    (bk=180)     
  2021-06-13 00:06:19     39.5             97.6         -13.5            22.1        -999.0
  2021-06-13 01:43:57     30.7            296.1          -5.0            43.2        -999.0
  2021-06-13 09:39:44     12.6             53.2          61.4           153.9          96.0
  2021-06-13 11:16:40     72.0             72.6          62.0           201.9         138.4
  2021-06-13 12:54:56     16.6            270.9          51.6           239.3         136.9
  2021-06-13 23:10:48     13.5             87.1         -15.8             9.1        -999.0
Spacecraft : CALIPSO    
         GMT                             Satellite      Satellite     Solar          Solar         Scat ang       
  year-mo-da hr:mn:sc    elevation     azimuth    elevation   azimuth    (bk=180)     
  2021-06-13 00:33:56     27.2             94.3         -11.6            28.3        -999.0
  2021-06-13 02:11:27     42.1            292.6          -1.8            48.7        -999.0
  2021-06-13 11:42:01     47.8             68.7          60.1           213.3         111.7
  2021-06-13 13:19:38     23.9            267.0          48.0           246.2         150.8
Spacecraft : CloudSat    
         GMT                             Satellite      Satellite     Solar          Solar         Scat ang       
  year-mo-da hr:mn:sc    elevation     azimuth    elevation   azimuth    (bk=180)     
  2021-06-13 01:20:00     68.2            102.7          -7.5            38.3        -999.0
  2021-06-13 02:56:56     19.2            301.4           3.7            57.3          67.0
  2021-06-13 10:50:57     18.9             58.4          63.1           189.3          90.5
  2021-06-13 12:27:53     69.4            257.2          55.2           230.7         161.5
Spacecraft : ISS    
         GMT                             Satellite      Satellite     Solar          Solar         Scat ang       
  year-mo-da hr:mn:sc    elevation     azimuth    elevation   azimuth    (bk=180)     
  2021-06-13 08:31:43     33.7            148.4          54.4           127.3         154.6
  2021-06-13 10:08:23     78.9            347.5          62.9           167.7         141.8
  2021-06-13 11:45:21     68.9              7.5          59.8           214.7         130.2
  2021-06-13 13:22:08     47.9            207.0          47.7           246.8         153.5
  2021-06-13 14:58:19     11.0            224.6          32.6           268.2         134.6